sensor_id;sensor_type;location;lat;lon;timestamp;P1;durP1;ratioP1;P2;durP2;ratioP2
24585;SDS011;12743;52.262;6.172;2022-09-13T00:01:00;9.43;;;5.80;;
24585;SDS011;12743;52.262;6.172;2022-09-13T00:03:26;7.60;;;5.03;;
24585;SDS011;12743;52.262;6.172;2022-09-13T00:05:52;8.32;;;5.20;;
24585;SDS011;12743;52.262;6.172;2022-09-13T00:08:18;7.77;;;4.93;;
24585;SDS011;12743;52.262;6.172;2022-09-13T00:10:43;9.23;;;5.32;;
24585;SDS011;12743;52.262;6.172;2022-09-13T00:13:10;7.10;;;4.20;;
24585;SDS011;12743;52.262;6.172;2022-09-13T00:15:41;8.15;;;5.50;;
24585;SDS011;12743;52.262;6.172;2022-09-13T00:18:08;6.70;;;4.32;;
24585;SDS011;12743;52.262;6.172;2022-09-13T00:20:33;8.67;;;5.10;;
24585;SDS011;12743;52.262;6.172;2022-09-13T00:22:58;8.10;;;4.97;;
24585;SDS011;12743;52.262;6.172;2022-09-13T00:25:24;8.50;;;5.20;;
24585;SDS011;12743;52.262;6.172;2022-09-13T00:27:49;7.90;;;4.67;;
24585;SDS011;12743;52.262;6.172;2022-09-13T00:30:14;7.80;;;4.90;;
24585;SDS011;12743;52.262;6.172;2022-09-13T00:32:40;6.70;;;4.50;;
24585;SDS011;12743;52.262;6.172;2022-09-13T00:35:05;6.80;;;4.40;;
24585;SDS011;12743;52.262;6.172;2022-09-13T00:37:32;7.65;;;4.47;;
24585;SDS011;12743;52.262;6.172;2022-09-13T00:39:58;8.10;;;5.43;;
24585;SDS011;12743;52.262;6.172;2022-09-13T00:42:28;8.40;;;4.45;;
24585;SDS011;12743;52.262;6.172;2022-09-13T00:44:57;6.10;;;3.73;;
24585;SDS011;12743;52.262;6.172;2022-09-13T00:47:31;7.85;;;5.03;;
24585;SDS011;12743;52.262;6.172;2022-09-13T00:50:22;7.78;;;5.18;;
24585;SDS011;12743;52.262;6.172;2022-09-13T00:52:53;8.02;;;5.07;;
24585;SDS011;12743;52.262;6.172;2022-09-13T00:56:05;7.82;;;5.30;;
24585;SDS011;12743;52.262;6.172;2022-09-13T00:58:16;8.30;;;5.30;;
24585;SDS011;12743;52.262;6.172;2022-09-13T01:00:44;10.38;;;5.78;;
24585;SDS011;12743;52.262;6.172;2022-09-13T01:03:10;6.85;;;4.53;;
24585;SDS011;12743;52.262;6.172;2022-09-13T01:05:43;8.82;;;5.00;;
24585;SDS011;12743;52.262;6.172;2022-09-13T01:08:11;9.27;;;5.30;;
24585;SDS011;12743;52.262;6.172;2022-09-13T01:10:46;10.68;;;4.97;;
24585;SDS011;12743;52.262;6.172;2022-09-13T01:13:23;8.38;;;5.22;;
24585;SDS011;12743;52.262;6.172;2022-09-13T01:15:51;9.25;;;5.68;;
24585;SDS011;12743;52.262;6.172;2022-09-13T01:18:17;6.43;;;4.13;;
24585;SDS011;12743;52.262;6.172;2022-09-13T01:23:28;9.55;;;5.50;;
24585;SDS011;12743;52.262;6.172;2022-09-13T01:31:34;9.65;;;5.50;;
24585;SDS011;12743;52.262;6.172;2022-09-13T01:37:27;7.22;;;4.85;;
24585;SDS011;12743;52.262;6.172;2022-09-13T01:40:23;9.43;;;5.07;;
24585;SDS011;12743;52.262;6.172;2022-09-13T01:45:47;8.40;;;6.13;;
24585;SDS011;12743;52.262;6.172;2022-09-13T01:51:19;7.97;;;5.40;;
24585;SDS011;12743;52.262;6.172;2022-09-13T01:56:37;8.48;;;5.75;;
24585;SDS011;12743;52.262;6.172;2022-09-13T02:01:39;6.47;;;4.40;;
24585;SDS011;12743;52.262;6.172;2022-09-13T02:04:12;9.82;;;5.82;;
24585;SDS011;12743;52.262;6.172;2022-09-13T02:07:01;7.73;;;5.03;;
24585;SDS011;12743;52.262;6.172;2022-09-13T02:09:33;9.75;;;5.47;;
24585;SDS011;12743;52.262;6.172;2022-09-13T02:12:04;7.57;;;4.97;;
24585;SDS011;12743;52.262;6.172;2022-09-13T02:14:36;7.80;;;4.32;;
24585;SDS011;12743;52.262;6.172;2022-09-13T02:17:05;11.52;;;5.53;;
24585;SDS011;12743;52.262;6.172;2022-09-13T02:19:44;8.10;;;4.30;;
24585;SDS011;12743;52.262;6.172;2022-09-13T02:22:17;9.20;;;5.13;;
24585;SDS011;12743;52.262;6.172;2022-09-13T02:24:51;9.23;;;4.93;;
24585;SDS011;12743;52.262;6.172;2022-09-13T02:27:23;6.90;;;5.10;;
24585;SDS011;12743;52.262;6.172;2022-09-13T02:29:52;8.32;;;5.00;;
24585;SDS011;12743;52.262;6.172;2022-09-13T02:32:29;9.27;;;5.20;;
24585;SDS011;12743;52.262;6.172;2022-09-13T02:35:01;7.45;;;4.90;;
24585;SDS011;12743;52.262;6.172;2022-09-13T02:37:32;9.05;;;5.20;;
24585;SDS011;12743;52.262;6.172;2022-09-13T02:40:04;7.65;;;5.03;;
24585;SDS011;12743;52.262;6.172;2022-09-13T02:42:39;9.23;;;5.15;;
24585;SDS011;12743;52.262;6.172;2022-09-13T02:45:08;9.03;;;5.90;;
24585;SDS011;12743;52.262;6.172;2022-09-13T02:48:11;8.43;;;5.63;;
24585;SDS011;12743;52.262;6.172;2022-09-13T02:50:45;8.45;;;5.38;;
24585;SDS011;12743;52.262;6.172;2022-09-13T02:56:08;6.63;;;4.70;;
24585;SDS011;12743;52.262;6.172;2022-09-13T02:58:47;8.60;;;4.80;;
24585;SDS011;12743;52.262;6.172;2022-09-13T03:01:15;7.93;;;4.90;;
24585;SDS011;12743;52.262;6.172;2022-09-13T03:03:41;8.27;;;6.00;;
24585;SDS011;12743;52.262;6.172;2022-09-13T03:06:07;8.90;;;5.50;;
24585;SDS011;12743;52.262;6.172;2022-09-13T03:08:33;7.50;;;5.20;;
24585;SDS011;12743;52.262;6.172;2022-09-13T03:16:42;11.65;;;6.10;;
24585;SDS011;12743;52.262;6.172;2022-09-13T03:24:57;9.07;;;5.97;;
24585;SDS011;12743;52.262;6.172;2022-09-13T03:27:44;9.07;;;5.72;;
24585;SDS011;12743;52.262;6.172;2022-09-13T03:30:17;8.23;;;5.07;;
24585;SDS011;12743;52.262;6.172;2022-09-13T03:32:57;8.30;;;5.78;;
24585;SDS011;12743;52.262;6.172;2022-09-13T03:35:37;8.45;;;5.32;;
24585;SDS011;12743;52.262;6.172;2022-09-13T03:38:08;8.57;;;6.03;;
24585;SDS011;12743;52.262;6.172;2022-09-13T03:40:48;9.45;;;6.20;;
24585;SDS011;12743;52.262;6.172;2022-09-13T03:43:21;10.38;;;7.15;;
24585;SDS011;12743;52.262;6.172;2022-09-13T03:45:57;12.75;;;7.50;;
24585;SDS011;12743;52.262;6.172;2022-09-13T03:48:25;10.73;;;7.45;;
24585;SDS011;12743;52.262;6.172;2022-09-13T03:50:52;7.53;;;5.13;;
24585;SDS011;12743;52.262;6.172;2022-09-13T03:53:19;10.52;;;7.20;;
24585;SDS011;12743;52.262;6.172;2022-09-13T03:55:48;13.63;;;7.47;;
24585;SDS011;12743;52.262;6.172;2022-09-13T03:58:14;9.40;;;6.30;;
24585;SDS011;12743;52.262;6.172;2022-09-13T04:00:42;9.70;;;6.25;;
24585;SDS011;12743;52.262;6.172;2022-09-13T04:03:08;10.75;;;6.47;;
24585;SDS011;12743;52.262;6.172;2022-09-13T04:05:34;8.23;;;5.55;;
24585;SDS011;12743;52.262;6.172;2022-09-13T04:08:00;7.27;;;4.90;;
24585;SDS011;12743;52.262;6.172;2022-09-13T04:10:27;9.85;;;6.70;;
24585;SDS011;12743;52.262;6.172;2022-09-13T04:12:53;9.77;;;5.38;;
24585;SDS011;12743;52.262;6.172;2022-09-13T04:15:19;10.27;;;6.40;;
24585;SDS011;12743;52.262;6.172;2022-09-13T04:17:45;13.52;;;8.75;;
24585;SDS011;12743;52.262;6.172;2022-09-13T04:20:11;9.77;;;6.15;;
24585;SDS011;12743;52.262;6.172;2022-09-13T04:22:37;12.97;;;8.00;;
24585;SDS011;12743;52.262;6.172;2022-09-13T04:25:02;11.93;;;8.03;;
24585;SDS011;12743;52.262;6.172;2022-09-13T04:27:28;12.53;;;7.97;;
24585;SDS011;12743;52.262;6.172;2022-09-13T04:29:53;13.03;;;8.53;;
24585;SDS011;12743;52.262;6.172;2022-09-13T04:32:18;11.47;;;8.17;;
24585;SDS011;12743;52.262;6.172;2022-09-13T04:34:44;12.83;;;7.33;;
24585;SDS011;12743;52.262;6.172;2022-09-13T04:37:11;10.52;;;6.85;;
24585;SDS011;12743;52.262;6.172;2022-09-13T04:39:37;12.70;;;8.80;;
24585;SDS011;12743;52.262;6.172;2022-09-13T04:42:03;15.50;;;9.50;;
24585;SDS011;12743;52.262;6.172;2022-09-13T04:44:28;14.17;;;9.50;;
24585;SDS011;12743;52.262;6.172;2022-09-13T04:46:54;13.60;;;9.63;;
24585;SDS011;12743;52.262;6.172;2022-09-13T04:49:19;15.88;;;9.70;;
24585;SDS011;12743;52.262;6.172;2022-09-13T04:51:46;12.77;;;7.93;;
24585;SDS011;12743;52.262;6.172;2022-09-13T04:54:11;12.57;;;7.70;;
24585;SDS011;12743;52.262;6.172;2022-09-13T04:56:37;14.15;;;9.73;;
24585;SDS011;12743;52.262;6.172;2022-09-13T04:59:03;15.40;;;9.07;;
24585;SDS011;12743;52.262;6.172;2022-09-13T05:01:28;9.30;;;6.37;;
24585;SDS011;12743;52.262;6.172;2022-09-13T05:03:53;12.43;;;8.30;;
24585;SDS011;12743;52.262;6.172;2022-09-13T05:06:19;13.93;;;9.53;;
24585;SDS011;12743;52.262;6.172;2022-09-13T05:08:49;12.15;;;8.82;;
24585;SDS011;12743;52.262;6.172;2022-09-13T05:11:20;13.18;;;8.93;;
24585;SDS011;12743;52.262;6.172;2022-09-13T05:13:50;13.37;;;8.97;;
24585;SDS011;12743;52.262;6.172;2022-09-13T05:16:18;13.48;;;9.52;;
24585;SDS011;12743;52.262;6.172;2022-09-13T05:18:44;12.68;;;9.05;;
24585;SDS011;12743;52.262;6.172;2022-09-13T05:21:09;13.57;;;9.47;;
24585;SDS011;12743;52.262;6.172;2022-09-13T05:23:35;13.33;;;8.80;;
24585;SDS011;12743;52.262;6.172;2022-09-13T05:26:02;9.55;;;6.10;;
24585;SDS011;12743;52.262;6.172;2022-09-13T05:28:30;15.83;;;9.93;;
24585;SDS011;12743;52.262;6.172;2022-09-13T05:31:01;12.65;;;8.45;;
24585;SDS011;12743;52.262;6.172;2022-09-13T05:33:31;17.63;;;10.13;;
24585;SDS011;12743;52.262;6.172;2022-09-13T05:35:58;15.77;;;9.82;;
24585;SDS011;12743;52.262;6.172;2022-09-13T05:38:23;15.20;;;9.73;;
24585;SDS011;12743;52.262;6.172;2022-09-13T05:40:59;14.70;;;9.90;;
24585;SDS011;12743;52.262;6.172;2022-09-13T05:43:26;12.05;;;7.18;;
24585;SDS011;12743;52.262;6.172;2022-09-13T05:46:03;17.33;;;11.95;;
24585;SDS011;12743;52.262;6.172;2022-09-13T05:48:30;20.55;;;10.95;;
24585;SDS011;12743;52.262;6.172;2022-09-13T05:50:56;14.40;;;8.83;;
24585;SDS011;12743;52.262;6.172;2022-09-13T05:53:21;23.55;;;13.65;;
24585;SDS011;12743;52.262;6.172;2022-09-13T05:55:47;11.33;;;6.97;;
24585;SDS011;12743;52.262;6.172;2022-09-13T05:58:12;16.30;;;8.57;;
24585;SDS011;12743;52.262;6.172;2022-09-13T06:00:37;12.27;;;7.60;;
24585;SDS011;12743;52.262;6.172;2022-09-13T06:03:03;22.53;;;11.73;;
24585;SDS011;12743;52.262;6.172;2022-09-13T06:05:28;15.50;;;9.90;;
24585;SDS011;12743;52.262;6.172;2022-09-13T06:07:53;18.87;;;12.33;;
24585;SDS011;12743;52.262;6.172;2022-09-13T06:10:19;12.30;;;7.75;;
24585;SDS011;12743;52.262;6.172;2022-09-13T06:12:45;15.83;;;9.27;;
24585;SDS011;12743;52.262;6.172;2022-09-13T06:15:10;18.65;;;11.07;;
24585;SDS011;12743;52.262;6.172;2022-09-13T06:17:36;16.07;;;11.07;;
24585;SDS011;12743;52.262;6.172;2022-09-13T06:20:01;20.63;;;13.47;;
24585;SDS011;12743;52.262;6.172;2022-09-13T06:22:27;15.32;;;7.93;;
24585;SDS011;12743;52.262;6.172;2022-09-13T06:24:57;17.70;;;11.57;;
24585;SDS011;12743;52.262;6.172;2022-09-13T06:27:23;14.35;;;9.38;;
24585;SDS011;12743;52.262;6.172;2022-09-13T06:29:48;20.20;;;12.97;;
24585;SDS011;12743;52.262;6.172;2022-09-13T06:32:14;18.07;;;10.77;;
24585;SDS011;12743;52.262;6.172;2022-09-13T06:34:39;13.53;;;8.97;;
24585;SDS011;12743;52.262;6.172;2022-09-13T06:37:04;15.93;;;9.03;;
24585;SDS011;12743;52.262;6.172;2022-09-13T06:39:30;14.03;;;8.63;;
24585;SDS011;12743;52.262;6.172;2022-09-13T06:41:56;14.45;;;9.38;;
24585;SDS011;12743;52.262;6.172;2022-09-13T06:44:36;19.67;;;11.50;;
24585;SDS011;12743;52.262;6.172;2022-09-13T06:47:01;18.67;;;11.47;;
24585;SDS011;12743;52.262;6.172;2022-09-13T06:49:26;17.57;;;9.77;;
24585;SDS011;12743;52.262;6.172;2022-09-13T06:51:53;21.83;;;13.25;;
24585;SDS011;12743;52.262;6.172;2022-09-13T06:54:18;20.53;;;11.83;;
24585;SDS011;12743;52.262;6.172;2022-09-13T06:56:44;18.30;;;11.98;;
24585;SDS011;12743;52.262;6.172;2022-09-13T06:59:09;11.37;;;7.07;;
24585;SDS011;12743;52.262;6.172;2022-09-13T07:01:36;20.37;;;12.50;;
24585;SDS011;12743;52.262;6.172;2022-09-13T07:04:16;23.08;;;13.05;;
24585;SDS011;12743;52.262;6.172;2022-09-13T07:06:47;17.42;;;12.02;;
24585;SDS011;12743;52.262;6.172;2022-09-13T07:09:18;18.40;;;11.85;;
24585;SDS011;12743;52.262;6.172;2022-09-13T07:11:45;17.33;;;10.80;;
24585;SDS011;12743;52.262;6.172;2022-09-13T07:14:19;19.17;;;11.43;;
24585;SDS011;12743;52.262;6.172;2022-09-13T07:16:46;16.80;;;10.30;;
24585;SDS011;12743;52.262;6.172;2022-09-13T07:19:15;17.57;;;11.80;;
24585;SDS011;12743;52.262;6.172;2022-09-13T07:21:42;17.85;;;12.23;;
24585;SDS011;12743;52.262;6.172;2022-09-13T07:24:08;22.83;;;13.48;;
24585;SDS011;12743;52.262;6.172;2022-09-13T07:26:34;17.87;;;12.10;;
24585;SDS011;12743;52.262;6.172;2022-09-13T07:29:00;19.55;;;12.52;;
24585;SDS011;12743;52.262;6.172;2022-09-13T07:31:31;16.25;;;11.30;;
24585;SDS011;12743;52.262;6.172;2022-09-13T07:33:59;17.10;;;11.23;;
24585;SDS011;12743;52.262;6.172;2022-09-13T07:36:27;25.03;;;13.57;;
24585;SDS011;12743;52.262;6.172;2022-09-13T07:38:53;17.38;;;10.95;;
24585;SDS011;12743;52.262;6.172;2022-09-13T07:41:19;17.03;;;10.53;;
24585;SDS011;12743;52.262;6.172;2022-09-13T07:43:46;21.33;;;11.43;;
24585;SDS011;12743;52.262;6.172;2022-09-13T07:46:13;15.05;;;9.82;;
24585;SDS011;12743;52.262;6.172;2022-09-13T07:48:41;19.73;;;12.60;;
24585;SDS011;12743;52.262;6.172;2022-09-13T07:51:15;20.97;;;11.63;;
24585;SDS011;12743;52.262;6.172;2022-09-13T07:53:48;19.60;;;12.23;;
24585;SDS011;12743;52.262;6.172;2022-09-13T07:56:15;18.90;;;11.88;;
24585;SDS011;12743;52.262;6.172;2022-09-13T07:58:45;15.27;;;9.88;;
24585;SDS011;12743;52.262;6.172;2022-09-13T08:01:21;18.95;;;10.57;;
24585;SDS011;12743;52.262;6.172;2022-09-13T08:03:55;15.87;;;8.47;;
24585;SDS011;12743;52.262;6.172;2022-09-13T08:06:23;16.77;;;8.77;;
24585;SDS011;12743;52.262;6.172;2022-09-13T08:08:50;18.67;;;9.32;;
24585;SDS011;12743;52.262;6.172;2022-09-13T08:11:19;18.25;;;8.57;;
24585;SDS011;12743;52.262;6.172;2022-09-13T08:13:50;17.20;;;8.48;;
24585;SDS011;12743;52.262;6.172;2022-09-13T08:16:16;13.30;;;6.83;;
24585;SDS011;12743;52.262;6.172;2022-09-13T08:18:44;17.13;;;8.60;;
24585;SDS011;12743;52.262;6.172;2022-09-13T08:21:10;17.75;;;8.30;;
24585;SDS011;12743;52.262;6.172;2022-09-13T08:23:35;16.30;;;8.27;;
24585;SDS011;12743;52.262;6.172;2022-09-13T08:26:01;16.10;;;8.37;;
24585;SDS011;12743;52.262;6.172;2022-09-13T08:28:27;13.05;;;7.63;;
24585;SDS011;12743;52.262;6.172;2022-09-13T08:30:53;16.67;;;7.97;;
24585;SDS011;12743;52.262;6.172;2022-09-13T08:33:18;15.27;;;7.65;;
24585;SDS011;12743;52.262;6.172;2022-09-13T08:35:50;13.83;;;6.97;;
24585;SDS011;12743;52.262;6.172;2022-09-13T08:38:16;13.32;;;6.65;;
24585;SDS011;12743;52.262;6.172;2022-09-13T08:40:44;13.40;;;6.73;;
24585;SDS011;12743;52.262;6.172;2022-09-13T08:43:20;14.40;;;6.45;;
24585;SDS011;12743;52.262;6.172;2022-09-13T08:46:20;12.95;;;6.15;;
24585;SDS011;12743;52.262;6.172;2022-09-13T08:48:50;11.77;;;6.15;;
24585;SDS011;12743;52.262;6.172;2022-09-13T08:51:22;9.30;;;5.50;;
24585;SDS011;12743;52.262;6.172;2022-09-13T08:53:55;12.55;;;5.82;;
24585;SDS011;12743;52.262;6.172;2022-09-13T08:56:22;12.35;;;5.95;;
24585;SDS011;12743;52.262;6.172;2022-09-13T09:04:41;16.03;;;5.37;;
24585;SDS011;12743;52.262;6.172;2022-09-13T09:07:12;9.70;;;4.38;;
24585;SDS011;12743;52.262;6.172;2022-09-13T09:09:49;6.38;;;3.97;;
24585;SDS011;12743;52.262;6.172;2022-09-13T09:12:38;9.65;;;4.15;;
24585;SDS011;12743;52.262;6.172;2022-09-13T09:15:13;8.13;;;3.35;;
24585;SDS011;12743;52.262;6.172;2022-09-13T09:20:29;6.53;;;2.40;;
24585;SDS011;12743;52.262;6.172;2022-09-13T09:22:59;5.70;;;2.15;;
24585;SDS011;12743;52.262;6.172;2022-09-13T09:25:37;7.22;;;1.90;;
24585;SDS011;12743;52.262;6.172;2022-09-13T09:28:08;4.00;;;2.15;;
24585;SDS011;12743;52.262;6.172;2022-09-13T09:39:13;4.90;;;1.73;;
24585;SDS011;12743;52.262;6.172;2022-09-13T09:41:40;7.00;;;1.50;;
24585;SDS011;12743;52.262;6.172;2022-09-13T09:46:53;5.70;;;1.13;;
24585;SDS011;12743;52.262;6.172;2022-09-13T09:49:32;4.07;;;0.90;;
24585;SDS011;12743;52.262;6.172;2022-09-13T09:52:31;5.30;;;0.90;;
24585;SDS011;12743;52.262;6.172;2022-09-13T09:58:05;3.07;;;0.70;;
24585;SDS011;12743;52.262;6.172;2022-09-13T10:00:36;5.15;;;0.77;;
24585;SDS011;12743;52.262;6.172;2022-09-13T10:03:24;4.85;;;0.70;;
24585;SDS011;12743;52.262;6.172;2022-09-13T10:06:02;3.95;;;0.90;;
24585;SDS011;12743;52.262;6.172;2022-09-13T10:08:32;2.67;;;0.90;;
24585;SDS011;12743;52.262;6.172;2022-09-13T10:10:59;3.57;;;0.60;;
24585;SDS011;12743;52.262;6.172;2022-09-13T10:13:25;3.53;;;0.60;;
24585;SDS011;12743;52.262;6.172;2022-09-13T10:15:52;4.60;;;1.25;;
24585;SDS011;12743;52.262;6.172;2022-09-13T10:18:19;3.73;;;0.90;;
24585;SDS011;12743;52.262;6.172;2022-09-13T10:20:59;4.03;;;0.70;;
24585;SDS011;12743;52.262;6.172;2022-09-13T10:23:25;3.88;;;0.70;;
24585;SDS011;12743;52.262;6.172;2022-09-13T10:26:01;3.17;;;0.70;;
24585;SDS011;12743;52.262;6.172;2022-09-13T10:28:34;5.15;;;1.00;;
24585;SDS011;12743;52.262;6.172;2022-09-13T10:31:09;3.63;;;0.67;;
24585;SDS011;12743;52.262;6.172;2022-09-13T10:33:38;3.88;;;0.77;;
24585;SDS011;12743;52.262;6.172;2022-09-13T10:36:17;4.00;;;0.80;;
24585;SDS011;12743;52.262;6.172;2022-09-13T10:39:11;3.03;;;0.80;;
24585;SDS011;12743;52.262;6.172;2022-09-13T10:41:38;5.25;;;0.70;;
24585;SDS011;12743;52.262;6.172;2022-09-13T10:44:20;4.10;;;0.50;;
24585;SDS011;12743;52.262;6.172;2022-09-13T10:46:55;2.58;;;0.60;;
24585;SDS011;12743;52.262;6.172;2022-09-13T10:49:34;3.92;;;0.88;;
24585;SDS011;12743;52.262;6.172;2022-09-13T10:52:26;3.92;;;0.45;;
24585;SDS011;12743;52.262;6.172;2022-09-13T10:54:53;3.15;;;0.63;;
24585;SDS011;12743;52.262;6.172;2022-09-13T10:57:33;4.77;;;0.80;;
24585;SDS011;12743;52.262;6.172;2022-09-13T11:00:00;1.48;;;0.50;;
24585;SDS011;12743;52.262;6.172;2022-09-13T11:02:38;2.35;;;0.50;;
24585;SDS011;12743;52.262;6.172;2022-09-13T11:13:16;1.60;;;0.30;;
24585;SDS011;12743;52.262;6.172;2022-09-13T11:15:52;2.92;;;0.50;;
24585;SDS011;12743;52.262;6.172;2022-09-13T11:26:47;2.00;;;0.52;;
24585;SDS011;12743;52.262;6.172;2022-09-13T11:40:21;4.72;;;0.55;;
24585;SDS011;12743;52.262;6.172;2022-09-13T11:51:46;2.53;;;0.50;;
24585;SDS011;12743;52.262;6.172;2022-09-13T11:57:16;4.35;;;0.50;;
24585;SDS011;12743;52.262;6.172;2022-09-13T12:02:39;2.03;;;0.40;;
24585;SDS011;12743;52.262;6.172;2022-09-13T12:05:17;5.30;;;0.50;;
24585;SDS011;12743;52.262;6.172;2022-09-13T12:10:37;3.33;;;0.43;;
24585;SDS011;12743;52.262;6.172;2022-09-13T12:13:09;3.83;;;0.75;;
24585;SDS011;12743;52.262;6.172;2022-09-13T12:15:42;3.25;;;0.50;;
24585;SDS011;12743;52.262;6.172;2022-09-13T12:20:47;3.55;;;0.52;;
24585;SDS011;12743;52.262;6.172;2022-09-13T12:23:22;1.90;;;0.50;;
24585;SDS011;12743;52.262;6.172;2022-09-13T12:26:18;4.32;;;0.60;;
24585;SDS011;12743;52.262;6.172;2022-09-13T12:29:03;2.95;;;0.50;;
24585;SDS011;12743;52.262;6.172;2022-09-13T12:31:35;3.17;;;0.63;;
24585;SDS011;12743;52.262;6.172;2022-09-13T12:34:00;5.53;;;0.60;;
24585;SDS011;12743;52.262;6.172;2022-09-13T12:36:38;3.77;;;0.60;;
24585;SDS011;12743;52.262;6.172;2022-09-13T12:45:07;2.85;;;0.43;;
24585;SDS011;12743;52.262;6.172;2022-09-13T12:48:03;3.13;;;0.40;;
24585;SDS011;12743;52.262;6.172;2022-09-13T13:03:11;3.85;;;0.40;;
24585;SDS011;12743;52.262;6.172;2022-09-13T13:05:30;4.50;;;0.60;;
24585;SDS011;12743;52.262;6.172;2022-09-13T13:08:14;4.80;;;0.80;;
24585;SDS011;12743;52.262;6.172;2022-09-13T13:10:42;2.28;;;0.65;;
24585;SDS011;12743;52.262;6.172;2022-09-13T13:13:08;3.87;;;0.30;;
24585;SDS011;12743;52.262;6.172;2022-09-13T13:18:20;4.00;;;0.70;;
24585;SDS011;12743;52.262;6.172;2022-09-13T13:23:25;1.90;;;0.40;;
24585;SDS011;12743;52.262;6.172;2022-09-13T13:26:42;2.63;;;0.38;;
24585;SDS011;12743;52.262;6.172;2022-09-13T13:29:03;3.22;;;0.40;;
24585;SDS011;12743;52.262;6.172;2022-09-13T13:31:40;3.27;;;0.30;;
24585;SDS011;12743;52.262;6.172;2022-09-13T13:39:08;2.37;;;0.37;;
24585;SDS011;12743;52.262;6.172;2022-09-13T13:41:58;5.25;;;0.68;;
24585;SDS011;12743;52.262;6.172;2022-09-13T13:54:32;4.43;;;0.30;;
24585;SDS011;12743;52.262;6.172;2022-09-13T13:59:44;5.82;;;0.40;;
24585;SDS011;12743;52.262;6.172;2022-09-13T14:02:11;2.25;;;0.30;;
24585;SDS011;12743;52.262;6.172;2022-09-13T14:07:25;1.57;;;0.40;;
24585;SDS011;12743;52.262;6.172;2022-09-13T14:10:03;4.07;;;0.40;;
24585;SDS011;12743;52.262;6.172;2022-09-13T14:12:40;2.55;;;0.30;;
24585;SDS011;12743;52.262;6.172;2022-09-13T14:15:48;3.42;;;0.45;;
24585;SDS011;12743;52.262;6.172;2022-09-13T14:18:27;2.53;;;0.40;;
24585;SDS011;12743;52.262;6.172;2022-09-13T14:21:01;3.63;;;0.57;;
24585;SDS011;12743;52.262;6.172;2022-09-13T14:23:29;2.05;;;0.32;;
24585;SDS011;12743;52.262;6.172;2022-09-13T14:25:56;3.50;;;0.43;;
24585;SDS011;12743;52.262;6.172;2022-09-13T14:28:24;2.63;;;0.68;;
24585;SDS011;12743;52.262;6.172;2022-09-13T14:30:54;4.75;;;0.65;;
24585;SDS011;12743;52.262;6.172;2022-09-13T14:33:24;5.10;;;0.60;;
24585;SDS011;12743;52.262;6.172;2022-09-13T14:36:05;2.85;;;0.50;;
24585;SDS011;12743;52.262;6.172;2022-09-13T14:38:35;3.92;;;0.60;;
24585;SDS011;12743;52.262;6.172;2022-09-13T14:43:33;2.72;;;0.60;;
24585;SDS011;12743;52.262;6.172;2022-09-13T14:46:02;2.57;;;0.40;;
24585;SDS011;12743;52.262;6.172;2022-09-13T14:51:16;3.73;;;0.50;;
24585;SDS011;12743;52.262;6.172;2022-09-13T14:53:46;3.90;;;0.47;;
24585;SDS011;12743;52.262;6.172;2022-09-13T14:56:16;4.55;;;0.45;;
24585;SDS011;12743;52.262;6.172;2022-09-13T14:58:53;5.47;;;0.60;;
24585;SDS011;12743;52.262;6.172;2022-09-13T15:01:25;3.03;;;0.40;;
24585;SDS011;12743;52.262;6.172;2022-09-13T15:03:54;4.10;;;0.40;;
24585;SDS011;12743;52.262;6.172;2022-09-13T15:06:25;5.85;;;0.35;;
24585;SDS011;12743;52.262;6.172;2022-09-13T15:08:53;3.70;;;0.60;;
24585;SDS011;12743;52.262;6.172;2022-09-13T15:11:29;3.45;;;0.47;;
24585;SDS011;12743;52.262;6.172;2022-09-13T15:14:20;2.10;;;0.30;;
24585;SDS011;12743;52.262;6.172;2022-09-13T15:16:47;5.30;;;0.40;;
24585;SDS011;12743;52.262;6.172;2022-09-13T15:19:26;4.18;;;0.32;;
24585;SDS011;12743;52.262;6.172;2022-09-13T15:22:01;2.88;;;0.40;;
24585;SDS011;12743;52.262;6.172;2022-09-13T15:24:29;4.47;;;0.65;;
24585;SDS011;12743;52.262;6.172;2022-09-13T15:27:01;3.67;;;0.35;;
24585;SDS011;12743;52.262;6.172;2022-09-13T15:29:30;2.93;;;0.63;;
24585;SDS011;12743;52.262;6.172;2022-09-13T15:31:59;3.72;;;0.40;;
24585;SDS011;12743;52.262;6.172;2022-09-13T15:34:26;5.25;;;0.30;;
24585;SDS011;12743;52.262;6.172;2022-09-13T15:37:06;3.30;;;0.50;;
24585;SDS011;12743;52.262;6.172;2022-09-13T15:39:41;2.28;;;0.40;;
24585;SDS011;12743;52.262;6.172;2022-09-13T15:42:07;4.43;;;0.50;;
24585;SDS011;12743;52.262;6.172;2022-09-13T15:44:32;4.88;;;0.50;;
24585;SDS011;12743;52.262;6.172;2022-09-13T15:46:59;2.23;;;0.30;;
24585;SDS011;12743;52.262;6.172;2022-09-13T15:49:26;3.88;;;0.30;;
24585;SDS011;12743;52.262;6.172;2022-09-13T15:51:54;2.70;;;0.30;;
24585;SDS011;12743;52.262;6.172;2022-09-13T15:54:20;4.18;;;0.40;;
24585;SDS011;12743;52.262;6.172;2022-09-13T15:56:49;3.85;;;0.40;;
24585;SDS011;12743;52.262;6.172;2022-09-13T15:59:18;4.43;;;0.30;;
24585;SDS011;12743;52.262;6.172;2022-09-13T16:01:49;2.50;;;0.32;;
24585;SDS011;12743;52.262;6.172;2022-09-13T16:04:15;3.90;;;0.40;;
24585;SDS011;12743;52.262;6.172;2022-09-13T16:06:41;3.67;;;0.40;;
24585;SDS011;12743;52.262;6.172;2022-09-13T16:09:15;4.10;;;0.40;;
24585;SDS011;12743;52.262;6.172;2022-09-13T16:11:43;7.30;;;0.50;;
24585;SDS011;12743;52.262;6.172;2022-09-13T16:14:08;4.50;;;0.50;;
24585;SDS011;12743;52.262;6.172;2022-09-13T16:16:34;2.73;;;0.30;;
24585;SDS011;12743;52.262;6.172;2022-09-13T16:19:05;4.00;;;0.30;;
24585;SDS011;12743;52.262;6.172;2022-09-13T16:21:33;2.90;;;0.30;;
24585;SDS011;12743;52.262;6.172;2022-09-13T16:23:58;3.87;;;0.40;;
24585;SDS011;12743;52.262;6.172;2022-09-13T16:26:24;7.50;;;0.50;;
24585;SDS011;12743;52.262;6.172;2022-09-13T16:28:49;3.23;;;0.50;;
24585;SDS011;12743;52.262;6.172;2022-09-13T16:31:15;4.38;;;0.63;;
24585;SDS011;12743;52.262;6.172;2022-09-13T16:33:41;4.10;;;0.20;;
24585;SDS011;12743;52.262;6.172;2022-09-13T16:36:08;4.05;;;0.30;;
24585;SDS011;12743;52.262;6.172;2022-09-13T16:38:36;9.77;;;2.17;;
24585;SDS011;12743;52.262;6.172;2022-09-13T16:41:03;2.67;;;0.50;;
24585;SDS011;12743;52.262;6.172;2022-09-13T16:43:29;6.57;;;0.45;;
24585;SDS011;12743;52.262;6.172;2022-09-13T16:45:55;5.33;;;0.37;;
24585;SDS011;12743;52.262;6.172;2022-09-13T16:48:20;4.10;;;0.40;;
24585;SDS011;12743;52.262;6.172;2022-09-13T16:50:45;5.30;;;0.40;;
24585;SDS011;12743;52.262;6.172;2022-09-13T16:53:11;7.03;;;0.80;;
24585;SDS011;12743;52.262;6.172;2022-09-13T16:55:36;4.03;;;0.30;;
24585;SDS011;12743;52.262;6.172;2022-09-13T16:58:01;3.90;;;0.38;;
24585;SDS011;12743;52.262;6.172;2022-09-13T17:00:27;2.30;;;0.30;;
24585;SDS011;12743;52.262;6.172;2022-09-13T17:02:54;3.13;;;0.30;;
24585;SDS011;12743;52.262;6.172;2022-09-13T17:05:20;4.63;;;0.40;;
24585;SDS011;12743;52.262;6.172;2022-09-13T17:07:47;3.55;;;0.57;;
24585;SDS011;12743;52.262;6.172;2022-09-13T17:10:12;4.83;;;0.30;;
24585;SDS011;12743;52.262;6.172;2022-09-13T17:12:37;4.27;;;0.50;;
24585;SDS011;12743;52.262;6.172;2022-09-13T17:15:03;8.70;;;0.40;;
24585;SDS011;12743;52.262;6.172;2022-09-13T17:17:29;5.78;;;0.60;;
24585;SDS011;12743;52.262;6.172;2022-09-13T17:20:00;6.97;;;0.40;;
24585;SDS011;12743;52.262;6.172;2022-09-13T17:22:32;4.47;;;0.30;;
24585;SDS011;12743;52.262;6.172;2022-09-13T17:24:57;2.70;;;0.30;;
24585;SDS011;12743;52.262;6.172;2022-09-13T17:27:23;1.80;;;0.23;;
24585;SDS011;12743;52.262;6.172;2022-09-13T17:29:48;6.13;;;0.67;;
24585;SDS011;12743;52.262;6.172;2022-09-13T17:32:13;6.53;;;0.50;;
24585;SDS011;12743;52.262;6.172;2022-09-13T17:34:39;4.13;;;0.43;;
24585;SDS011;12743;52.262;6.172;2022-09-13T17:37:04;3.63;;;0.33;;